sensor_id;sensor_type;location;lat;lon;timestamp;P1;durP1;ratioP1;P2;durP2;ratioP2
15812;SDS011;8007;51.404;6.304;2023-08-06T00:04:15;3.07;;;2.27;;
15812;SDS011;8007;51.404;6.304;2023-08-06T00:06:30;2.60;;;2.40;;
15812;SDS011;8007;51.404;6.304;2023-08-06T00:09:10;3.57;;;2.70;;
15812;SDS011;8007;51.404;6.304;2023-08-06T00:11:35;3.60;;;2.43;;
15812;SDS011;8007;51.404;6.304;2023-08-06T00:13:46;3.57;;;2.50;;
15812;SDS011;8007;51.404;6.304;2023-08-06T00:16:20;2.87;;;2.50;;
15812;SDS011;8007;51.404;6.304;2023-08-06T00:18:56;3.57;;;2.43;;
15812;SDS011;8007;51.404;6.304;2023-08-06T00:21:42;3.77;;;2.50;;
15812;SDS011;8007;51.404;6.304;2023-08-06T00:24:16;5.07;;;2.13;;
15812;SDS011;8007;51.404;6.304;2023-08-06T00:27:11;2.87;;;2.30;;
15812;SDS011;8007;51.404;6.304;2023-08-06T00:31:02;2.67;;;2.20;;
15812;SDS011;8007;51.404;6.304;2023-08-06T00:32:34;2.30;;;2.10;;
15812;SDS011;8007;51.404;6.304;2023-08-06T00:34:58;5.13;;;2.30;;
15812;SDS011;8007;51.404;6.304;2023-08-06T00:37:21;4.27;;;2.27;;
15812;SDS011;8007;51.404;6.304;2023-08-06T00:40:03;2.50;;;2.07;;
15812;SDS011;8007;51.404;6.304;2023-08-06T00:43:03;5.20;;;2.77;;
15812;SDS011;8007;51.404;6.304;2023-08-06T00:48:15;3.43;;;2.53;;
15812;SDS011;8007;51.404;6.304;2023-08-06T00:51:14;5.17;;;2.70;;
15812;SDS011;8007;51.404;6.304;2023-08-06T00:53:24;3.83;;;2.40;;
15812;SDS011;8007;51.404;6.304;2023-08-06T00:56:01;2.87;;;2.33;;
15812;SDS011;8007;51.404;6.304;2023-08-06T01:04:31;4.63;;;2.70;;
15812;SDS011;8007;51.404;6.304;2023-08-06T01:06:39;4.60;;;2.73;;
15812;SDS011;8007;51.404;6.304;2023-08-06T01:14:48;3.63;;;2.53;;
15812;SDS011;8007;51.404;6.304;2023-08-06T01:17:23;4.20;;;2.30;;
15812;SDS011;8007;51.404;6.304;2023-08-06T01:20:02;3.13;;;2.20;;
15812;SDS011;8007;51.404;6.304;2023-08-06T01:25:11;4.43;;;2.47;;
15812;SDS011;8007;51.404;6.304;2023-08-06T01:28:09;5.23;;;2.30;;
15812;SDS011;8007;51.404;6.304;2023-08-06T01:32:38;4.63;;;2.23;;
15812;SDS011;8007;51.404;6.304;2023-08-06T01:35:07;4.97;;;2.37;;
15812;SDS011;8007;51.404;6.304;2023-08-06T01:37:32;2.93;;;2.13;;
15812;SDS011;8007;51.404;6.304;2023-08-06T01:39:59;2.90;;;2.63;;
15812;SDS011;8007;51.404;6.304;2023-08-06T01:45:29;3.17;;;2.40;;
15812;SDS011;8007;51.404;6.304;2023-08-06T01:48:02;3.53;;;2.10;;
15812;SDS011;8007;51.404;6.304;2023-08-06T01:50:50;2.60;;;2.20;;
15812;SDS011;8007;51.404;6.304;2023-08-06T01:59:31;7.97;;;2.50;;
15812;SDS011;8007;51.404;6.304;2023-08-06T05:08:42;7.67;;;3.07;;
15812;SDS011;8007;51.404;6.304;2023-08-06T05:14:56;6.80;;;3.27;;
15812;SDS011;8007;51.404;6.304;2023-08-06T05:42:04;5.37;;;2.70;;
15812;SDS011;8007;51.404;6.304;2023-08-06T05:44:17;3.87;;;2.83;;
15812;SDS011;8007;51.404;6.304;2023-08-06T05:46:20;4.13;;;2.80;;
15812;SDS011;8007;51.404;6.304;2023-08-06T06:54:35;3.27;;;2.63;;
15812;SDS011;8007;51.404;6.304;2023-08-06T07:02:53;2.37;;;2.00;;
15812;SDS011;8007;51.404;6.304;2023-08-06T07:13:38;4.77;;;1.80;;
15812;SDS011;8007;51.404;6.304;2023-08-06T07:19:03;5.77;;;2.00;;
15812;SDS011;8007;51.404;6.304;2023-08-06T07:29:49;2.80;;;2.00;;
15812;SDS011;8007;51.404;6.304;2023-08-06T07:36:47;5.20;;;1.90;;
15812;SDS011;8007;51.404;6.304;2023-08-06T08:16:57;3.77;;;3.33;;
15812;SDS011;8007;51.404;6.304;2023-08-06T08:19:29;3.63;;;3.33;;
15812;SDS011;8007;51.404;6.304;2023-08-06T08:30:49;6.20;;;4.90;;
15812;SDS011;8007;51.404;6.304;2023-08-06T08:38:29;5.80;;;5.10;;
15812;SDS011;8007;51.404;6.304;2023-08-06T08:40:35;6.13;;;5.53;;
15812;SDS011;8007;51.404;6.304;2023-08-06T08:42:53;7.10;;;5.43;;
15812;SDS011;8007;51.404;6.304;2023-08-06T08:46:00;6.67;;;5.73;;
15812;SDS011;8007;51.404;6.304;2023-08-06T08:51:36;7.43;;;5.40;;
15812;SDS011;8007;51.404;6.304;2023-08-06T08:53:58;7.30;;;5.60;;
15812;SDS011;8007;51.404;6.304;2023-08-06T08:56:14;7.07;;;5.70;;
15812;SDS011;8007;51.404;6.304;2023-08-06T08:58:35;9.37;;;5.20;;
15812;SDS011;8007;51.404;6.304;2023-08-06T09:00:41;5.87;;;4.83;;
15812;SDS011;8007;51.404;6.304;2023-08-06T09:03:01;6.40;;;5.17;;
15812;SDS011;8007;51.404;6.304;2023-08-06T09:05:17;7.43;;;5.10;;
15812;SDS011;8007;51.404;6.304;2023-08-06T09:21:28;7.70;;;5.37;;
15812;SDS011;8007;51.404;6.304;2023-08-06T09:34:57;13.80;;;7.30;;
15812;SDS011;8007;51.404;6.304;2023-08-06T09:37:18;9.37;;;5.47;;
15812;SDS011;8007;51.404;6.304;2023-08-06T09:39:21;7.20;;;4.43;;
15812;SDS011;8007;51.404;6.304;2023-08-06T09:41:28;4.13;;;3.73;;
15812;SDS011;8007;51.404;6.304;2023-08-06T09:43:30;3.77;;;3.00;;
15812;SDS011;8007;51.404;6.304;2023-08-06T09:45:42;3.13;;;2.80;;
15812;SDS011;8007;51.404;6.304;2023-08-06T09:47:45;3.10;;;2.20;;
15812;SDS011;8007;51.404;6.304;2023-08-06T09:49:46;2.30;;;2.10;;
15812;SDS011;8007;51.404;6.304;2023-08-06T09:51:51;3.60;;;2.07;;
15812;SDS011;8007;51.404;6.304;2023-08-06T09:53:55;1.93;;;1.83;;
15812;SDS011;8007;51.404;6.304;2023-08-06T09:55:58;2.17;;;1.60;;
15812;SDS011;8007;51.404;6.304;2023-08-06T09:58:01;2.90;;;1.90;;
15812;SDS011;8007;51.404;6.304;2023-08-06T10:00:04;2.03;;;1.70;;
15812;SDS011;8007;51.404;6.304;2023-08-06T10:02:10;1.80;;;1.70;;
15812;SDS011;8007;51.404;6.304;2023-08-06T10:04:14;1.80;;;1.70;;
15812;SDS011;8007;51.404;6.304;2023-08-06T10:06:17;2.07;;;1.93;;
15812;SDS011;8007;51.404;6.304;2023-08-06T10:08:22;3.60;;;2.00;;
15812;SDS011;8007;51.404;6.304;2023-08-06T10:10:24;2.93;;;2.20;;
15812;SDS011;8007;51.404;6.304;2023-08-06T10:12:27;2.57;;;2.20;;
15812;SDS011;8007;51.404;6.304;2023-08-06T10:14:32;2.87;;;2.20;;
15812;SDS011;8007;51.404;6.304;2023-08-06T10:16:36;2.90;;;2.17;;
15812;SDS011;8007;51.404;6.304;2023-08-06T10:18:40;7.63;;;2.60;;
15812;SDS011;8007;51.404;6.304;2023-08-06T10:20:43;2.87;;;2.63;;
15812;SDS011;8007;51.404;6.304;2023-08-06T10:22:45;3.53;;;2.67;;
15812;SDS011;8007;51.404;6.304;2023-08-06T10:24:50;3.00;;;2.70;;
15812;SDS011;8007;51.404;6.304;2023-08-06T10:26:52;3.00;;;2.70;;
15812;SDS011;8007;51.404;6.304;2023-08-06T10:29:00;5.03;;;3.00;;
15812;SDS011;8007;51.404;6.304;2023-08-06T10:31:05;4.03;;;3.63;;
15812;SDS011;8007;51.404;6.304;2023-08-06T10:33:07;5.23;;;3.97;;
15812;SDS011;8007;51.404;6.304;2023-08-06T10:35:10;5.00;;;4.23;;
15812;SDS011;8007;51.404;6.304;2023-08-06T10:37:36;5.27;;;4.23;;
15812;SDS011;8007;51.404;6.304;2023-08-06T10:39:39;6.13;;;4.60;;
15812;SDS011;8007;51.404;6.304;2023-08-06T10:41:52;5.47;;;4.30;;
15812;SDS011;8007;51.404;6.304;2023-08-06T10:44:04;5.47;;;4.63;;
15812;SDS011;8007;51.404;6.304;2023-08-06T10:46:09;5.10;;;4.60;;
15812;SDS011;8007;51.404;6.304;2023-08-06T10:48:35;7.23;;;4.90;;
15812;SDS011;8007;51.404;6.304;2023-08-06T10:50:45;5.17;;;4.67;;
15812;SDS011;8007;51.404;6.304;2023-08-06T10:52:48;5.27;;;4.77;;
15812;SDS011;8007;51.404;6.304;2023-08-06T10:54:52;6.83;;;5.73;;
15812;SDS011;8007;51.404;6.304;2023-08-06T10:56:56;5.13;;;4.23;;
15812;SDS011;8007;51.404;6.304;2023-08-06T10:58:58;6.47;;;4.97;;
15812;SDS011;8007;51.404;6.304;2023-08-06T11:01:01;4.63;;;4.13;;
15812;SDS011;8007;51.404;6.304;2023-08-06T11:03:04;5.10;;;4.20;;
15812;SDS011;8007;51.404;6.304;2023-08-06T11:05:07;4.30;;;3.90;;
15812;SDS011;8007;51.404;6.304;2023-08-06T11:07:10;5.37;;;4.50;;
15812;SDS011;8007;51.404;6.304;2023-08-06T11:09:14;4.40;;;4.00;;
15812;SDS011;8007;51.404;6.304;2023-08-06T11:11:19;5.77;;;3.67;;
15812;SDS011;8007;51.404;6.304;2023-08-06T11:13:21;4.57;;;3.10;;
15812;SDS011;8007;51.404;6.304;2023-08-06T11:15:25;5.20;;;3.80;;
15812;SDS011;8007;51.404;6.304;2023-08-06T11:17:29;4.77;;;3.83;;
15812;SDS011;8007;51.404;6.304;2023-08-06T11:19:31;4.20;;;3.50;;
15812;SDS011;8007;51.404;6.304;2023-08-06T11:21:34;4.00;;;3.53;;
15812;SDS011;8007;51.404;6.304;2023-08-06T11:23:36;5.03;;;3.50;;
15812;SDS011;8007;51.404;6.304;2023-08-06T11:25:43;3.80;;;3.40;;
15812;SDS011;8007;51.404;6.304;2023-08-06T11:27:47;4.03;;;3.63;;
15812;SDS011;8007;51.404;6.304;2023-08-06T11:29:50;5.47;;;3.67;;
15812;SDS011;8007;51.404;6.304;2023-08-06T11:31:51;4.80;;;3.27;;
15812;SDS011;8007;51.404;6.304;2023-08-06T11:33:54;4.33;;;3.23;;
15812;SDS011;8007;51.404;6.304;2023-08-06T11:35:57;3.60;;;3.07;;
15812;SDS011;8007;51.404;6.304;2023-08-06T11:38:00;5.33;;;3.60;;
15812;SDS011;8007;51.404;6.304;2023-08-06T11:40:05;3.30;;;3.00;;
15812;SDS011;8007;51.404;6.304;2023-08-06T11:42:12;5.20;;;4.00;;
15812;SDS011;8007;51.404;6.304;2023-08-06T11:44:16;6.47;;;4.00;;
15812;SDS011;8007;51.404;6.304;2023-08-06T11:46:22;6.23;;;4.33;;
15812;SDS011;8007;51.404;6.304;2023-08-06T11:48:25;5.63;;;4.13;;
15812;SDS011;8007;51.404;6.304;2023-08-06T11:50:27;7.07;;;4.43;;
15812;SDS011;8007;51.404;6.304;2023-08-06T11:52:30;5.63;;;4.23;;
15812;SDS011;8007;51.404;6.304;2023-08-06T11:54:33;5.20;;;4.17;;
15812;SDS011;8007;51.404;6.304;2023-08-06T11:56:37;5.70;;;4.07;;
15812;SDS011;8007;51.404;6.304;2023-08-06T11:58:40;6.17;;;3.97;;
15812;SDS011;8007;51.404;6.304;2023-08-06T12:00:44;5.33;;;4.17;;
15812;SDS011;8007;51.404;6.304;2023-08-06T12:02:47;6.43;;;4.30;;
15812;SDS011;8007;51.404;6.304;2023-08-06T12:05:00;5.80;;;4.40;;
15812;SDS011;8007;51.404;6.304;2023-08-06T12:07:05;5.93;;;4.17;;
15812;SDS011;8007;51.404;6.304;2023-08-06T12:09:09;5.00;;;4.50;;
15812;SDS011;8007;51.404;6.304;2023-08-06T12:11:11;11.67;;;4.93;;
15812;SDS011;8007;51.404;6.304;2023-08-06T12:13:14;10.63;;;6.07;;
15812;SDS011;8007;51.404;6.304;2023-08-06T12:15:17;7.73;;;4.33;;
15812;SDS011;8007;51.404;6.304;2023-08-06T12:17:21;7.67;;;4.53;;
15812;SDS011;8007;51.404;6.304;2023-08-06T12:19:23;4.33;;;3.87;;
15812;SDS011;8007;51.404;6.304;2023-08-06T12:21:26;6.80;;;4.00;;
15812;SDS011;8007;51.404;6.304;2023-08-06T12:23:28;6.07;;;4.20;;
15812;SDS011;8007;51.404;6.304;2023-08-06T12:25:33;6.00;;;4.10;;
15812;SDS011;8007;51.404;6.304;2023-08-06T12:27:35;7.23;;;4.47;;
15812;SDS011;8007;51.404;6.304;2023-08-06T12:29:37;6.57;;;4.40;;
15812;SDS011;8007;51.404;6.304;2023-08-06T12:31:42;6.73;;;3.97;;
15812;SDS011;8007;51.404;6.304;2023-08-06T12:33:46;6.63;;;4.40;;
15812;SDS011;8007;51.404;6.304;2023-08-06T12:35:48;7.40;;;4.10;;
15812;SDS011;8007;51.404;6.304;2023-08-06T12:37:50;5.53;;;4.10;;
15812;SDS011;8007;51.404;6.304;2023-08-06T12:39:54;7.73;;;4.13;;
15812;SDS011;8007;51.404;6.304;2023-08-06T12:41:56;5.33;;;3.73;;
15812;SDS011;8007;51.404;6.304;2023-08-06T12:43:59;6.70;;;3.80;;
15812;SDS011;8007;51.404;6.304;2023-08-06T12:46:01;7.03;;;3.73;;
15812;SDS011;8007;51.404;6.304;2023-08-06T12:48:04;6.73;;;3.83;;
15812;SDS011;8007;51.404;6.304;2023-08-06T12:50:08;6.93;;;3.57;;
15812;SDS011;8007;51.404;6.304;2023-08-06T12:52:11;9.27;;;3.60;;
15812;SDS011;8007;51.404;6.304;2023-08-06T12:54:16;6.20;;;3.43;;
15812;SDS011;8007;51.404;6.304;2023-08-06T12:56:19;3.70;;;2.80;;
15812;SDS011;8007;51.404;6.304;2023-08-06T12:58:22;9.00;;;3.40;;
15812;SDS011;8007;51.404;6.304;2023-08-06T13:00:24;6.43;;;3.20;;
15812;SDS011;8007;51.404;6.304;2023-08-06T13:02:27;6.07;;;3.43;;
15812;SDS011;8007;51.404;6.304;2023-08-06T13:04:30;4.47;;;3.30;;
15812;SDS011;8007;51.404;6.304;2023-08-06T13:06:35;10.17;;;4.73;;
15812;SDS011;8007;51.404;6.304;2023-08-06T13:08:39;5.43;;;3.30;;
15812;SDS011;8007;51.404;6.304;2023-08-06T13:10:40;6.47;;;3.30;;
15812;SDS011;8007;51.404;6.304;2023-08-06T13:12:43;5.90;;;3.20;;
15812;SDS011;8007;51.404;6.304;2023-08-06T13:14:45;5.57;;;3.50;;
15812;SDS011;8007;51.404;6.304;2023-08-06T13:16:47;4.47;;;3.00;;
15812;SDS011;8007;51.404;6.304;2023-08-06T13:18:50;6.10;;;3.13;;
15812;SDS011;8007;51.404;6.304;2023-08-06T13:20:53;5.37;;;3.10;;
15812;SDS011;8007;51.404;6.304;2023-08-06T13:22:57;6.47;;;3.50;;
15812;SDS011;8007;51.404;6.304;2023-08-06T13:25:01;5.03;;;2.97;;
15812;SDS011;8007;51.404;6.304;2023-08-06T13:27:03;6.30;;;3.60;;
15812;SDS011;8007;51.404;6.304;2023-08-06T13:29:06;4.97;;;3.03;;
15812;SDS011;8007;51.404;6.304;2023-08-06T13:31:09;5.70;;;3.40;;
15812;SDS011;8007;51.404;6.304;2023-08-06T13:33:11;4.97;;;3.60;;
15812;SDS011;8007;51.404;6.304;2023-08-06T13:35:13;6.63;;;3.40;;
15812;SDS011;8007;51.404;6.304;2023-08-06T13:37:16;4.70;;;3.90;;
15812;SDS011;8007;51.404;6.304;2023-08-06T13:39:19;4.50;;;3.77;;
15812;SDS011;8007;51.404;6.304;2023-08-06T13:41:22;6.50;;;3.60;;
15812;SDS011;8007;51.404;6.304;2023-08-06T13:43:26;5.70;;;3.40;;
15812;SDS011;8007;51.404;6.304;2023-08-06T13:45:28;5.33;;;3.63;;
15812;SDS011;8007;51.404;6.304;2023-08-06T13:47:32;5.67;;;3.73;;
15812;SDS011;8007;51.404;6.304;2023-08-06T13:49:34;7.03;;;4.30;;
15812;SDS011;8007;51.404;6.304;2023-08-06T13:51:37;5.63;;;3.77;;
15812;SDS011;8007;51.404;6.304;2023-08-06T13:53:40;6.67;;;4.53;;
15812;SDS011;8007;51.404;6.304;2023-08-06T13:55:44;5.93;;;4.10;;
15812;SDS011;8007;51.404;6.304;2023-08-06T13:57:46;6.90;;;4.07;;
15812;SDS011;8007;51.404;6.304;2023-08-06T13:59:48;5.77;;;3.67;;
15812;SDS011;8007;51.404;6.304;2023-08-06T14:01:51;6.53;;;4.53;;
15812;SDS011;8007;51.404;6.304;2023-08-06T14:03:53;7.37;;;4.57;;
15812;SDS011;8007;51.404;6.304;2023-08-06T14:05:59;4.60;;;3.60;;
15812;SDS011;8007;51.404;6.304;2023-08-06T14:08:01;5.93;;;3.77;;
15812;SDS011;8007;51.404;6.304;2023-08-06T14:10:03;7.33;;;4.20;;
15812;SDS011;8007;51.404;6.304;2023-08-06T14:12:08;6.87;;;4.27;;
15812;SDS011;8007;51.404;6.304;2023-08-06T14:14:10;6.87;;;4.07;;
15812;SDS011;8007;51.404;6.304;2023-08-06T14:16:12;6.87;;;4.53;;
15812;SDS011;8007;51.404;6.304;2023-08-06T14:18:15;5.47;;;3.97;;
15812;SDS011;8007;51.404;6.304;2023-08-06T14:20:17;5.83;;;4.07;;
15812;SDS011;8007;51.404;6.304;2023-08-06T14:22:19;6.87;;;3.93;;
15812;SDS011;8007;51.404;6.304;2023-08-06T14:24:23;7.37;;;4.07;;
15812;SDS011;8007;51.404;6.304;2023-08-06T14:26:25;5.70;;;3.47;;
15812;SDS011;8007;51.404;6.304;2023-08-06T14:28:29;5.67;;;3.77;;
15812;SDS011;8007;51.404;6.304;2023-08-06T14:30:31;5.07;;;3.30;;
15812;SDS011;8007;51.404;6.304;2023-08-06T14:32:34;6.03;;;3.33;;
15812;SDS011;8007;51.404;6.304;2023-08-06T14:34:37;7.23;;;3.27;;
15812;SDS011;8007;51.404;6.304;2023-08-06T14:36:40;4.90;;;3.20;;
15812;SDS011;8007;51.404;6.304;2023-08-06T14:38:42;4.97;;;2.70;;
15812;SDS011;8007;51.404;6.304;2023-08-06T14:40:45;4.93;;;2.80;;
15812;SDS011;8007;51.404;6.304;2023-08-06T14:42:47;6.90;;;3.47;;
15812;SDS011;8007;51.404;6.304;2023-08-06T14:44:51;5.37;;;3.47;;
15812;SDS011;8007;51.404;6.304;2023-08-06T14:46:54;4.30;;;3.03;;
15812;SDS011;8007;51.404;6.304;2023-08-06T14:48:57;4.03;;;2.77;;
15812;SDS011;8007;51.404;6.304;2023-08-06T14:50:59;5.20;;;3.10;;
15812;SDS011;8007;51.404;6.304;2023-08-06T14:53:02;7.87;;;3.30;;
15812;SDS011;8007;51.404;6.304;2023-08-06T14:55:05;8.93;;;3.10;;
15812;SDS011;8007;51.404;6.304;2023-08-06T14:57:08;4.80;;;2.93;;
15812;SDS011;8007;51.404;6.304;2023-08-06T14:59:12;4.67;;;3.20;;
15812;SDS011;8007;51.404;6.304;2023-08-06T15:01:16;6.83;;;3.13;;
15812;SDS011;8007;51.404;6.304;2023-08-06T15:03:18;4.23;;;3.10;;
15812;SDS011;8007;51.404;6.304;2023-08-06T15:05:21;7.70;;;3.97;;
15812;SDS011;8007;51.404;6.304;2023-08-06T15:07:23;3.73;;;3.20;;
15812;SDS011;8007;51.404;6.304;2023-08-06T15:09:28;4.17;;;2.80;;
15812;SDS011;8007;51.404;6.304;2023-08-06T15:11:30;7.43;;;3.20;;
15812;SDS011;8007;51.404;6.304;2023-08-06T15:13:33;7.27;;;3.33;;
15812;SDS011;8007;51.404;6.304;2023-08-06T15:15:35;3.70;;;3.30;;
15812;SDS011;8007;51.404;6.304;2023-08-06T15:17:43;7.00;;;3.30;;
15812;SDS011;8007;51.404;6.304;2023-08-06T15:19:45;5.27;;;2.67;;
15812;SDS011;8007;51.404;6.304;2023-08-06T15:21:48;5.03;;;2.93;;
15812;SDS011;8007;51.404;6.304;2023-08-06T15:23:50;6.87;;;3.37;;
15812;SDS011;8007;51.404;6.304;2023-08-06T15:25:53;5.17;;;3.17;;
15812;SDS011;8007;51.404;6.304;2023-08-06T15:27:56;4.03;;;3.17;;
15812;SDS011;8007;51.404;6.304;2023-08-06T15:29:58;4.73;;;3.23;;
15812;SDS011;8007;51.404;6.304;2023-08-06T15:32:01;4.17;;;3.00;;
15812;SDS011;8007;51.404;6.304;2023-08-06T15:34:05;5.77;;;2.80;;
15812;SDS011;8007;51.404;6.304;2023-08-06T15:36:07;4.63;;;2.83;;
15812;SDS011;8007;51.404;6.304;2023-08-06T15:38:10;3.77;;;2.50;;
15812;SDS011;8007;51.404;6.304;2023-08-06T15:40:12;2.73;;;2.40;;
15812;SDS011;8007;51.404;6.304;2023-08-06T15:42:15;2.33;;;2.10;;
15812;SDS011;8007;51.404;6.304;2023-08-06T15:44:17;4.60;;;2.40;;
15812;SDS011;8007;51.404;6.304;2023-08-06T15:46:19;5.27;;;1.90;;
15812;SDS011;8007;51.404;6.304;2023-08-06T15:48:22;2.77;;;1.80;;
15812;SDS011;8007;51.404;6.304;2023-08-06T15:50:29;2.27;;;2.00;;
15812;SDS011;8007;51.404;6.304;2023-08-06T15:52:31;3.50;;;2.57;;
15812;SDS011;8007;51.404;6.304;2023-08-06T15:54:36;2.30;;;2.10;;
15812;SDS011;8007;51.404;6.304;2023-08-06T15:56:39;3.53;;;1.80;;
15812;SDS011;8007;51.404;6.304;2023-08-06T15:58:45;2.40;;;2.00;;
15812;SDS011;8007;51.404;6.304;2023-08-06T16:00:50;3.17;;;2.53;;
15812;SDS011;8007;51.404;6.304;2023-08-06T16:05:35;4.33;;;2.40;;
15812;SDS011;8007;51.404;6.304;2023-08-06T16:07:53;2.87;;;2.10;;
15812;SDS011;8007;51.404;6.304;2023-08-06T16:16:31;4.93;;;2.80;;
15812;SDS011;8007;51.404;6.304;2023-08-06T16:19:02;4.87;;;2.60;;
15812;SDS011;8007;51.404;6.304;2023-08-06T16:21:35;6.83;;;3.00;;
15812;SDS011;8007;51.404;6.304;2023-08-06T16:23:43;4.07;;;2.73;;
15812;SDS011;8007;51.404;6.304;2023-08-06T16:25:46;3.50;;;3.03;;
15812;SDS011;8007;51.404;6.304;2023-08-06T16:27:56;5.90;;;3.33;;
15812;SDS011;8007;51.404;6.304;2023-08-06T16:29:59;5.13;;;3.33;;
15812;SDS011;8007;51.404;6.304;2023-08-06T16:32:03;6.87;;;3.53;;
15812;SDS011;8007;51.404;6.304;2023-08-06T16:34:16;5.93;;;3.50;;
15812;SDS011;8007;51.404;6.304;2023-08-06T16:36:30;8.77;;;3.87;;
15812;SDS011;8007;51.404;6.304;2023-08-06T16:38:54;5.53;;;3.73;;
15812;SDS011;8007;51.404;6.304;2023-08-06T16:41:07;4.07;;;3.60;;
15812;SDS011;8007;51.404;6.304;2023-08-06T16:43:11;7.63;;;4.10;;
15812;SDS011;8007;51.404;6.304;2023-08-06T16:45:19;7.47;;;3.93;;
15812;SDS011;8007;51.404;6.304;2023-08-06T16:47:22;6.43;;;4.27;;
15812;SDS011;8007;51.404;6.304;2023-08-06T16:49:25;5.57;;;4.57;;
15812;SDS011;8007;51.404;6.304;2023-08-06T16:51:27;7.97;;;4.80;;
15812;SDS011;8007;51.404;6.304;2023-08-06T16:53:31;10.07;;;4.80;;
15812;SDS011;8007;51.404;6.304;2023-08-06T16:55:33;6.77;;;4.00;;
15812;SDS011;8007;51.404;6.304;2023-08-06T16:57:36;5.30;;;3.20;;
15812;SDS011;8007;51.404;6.304;2023-08-06T16:59:38;3.70;;;3.23;;
15812;SDS011;8007;51.404;6.304;2023-08-06T17:01:41;9.77;;;3.40;;
15812;SDS011;8007;51.404;6.304;2023-08-06T17:03:44;6.20;;;3.50;;
15812;SDS011;8007;51.404;6.304;2023-08-06T17:05:48;6.27;;;2.97;;
15812;SDS011;8007;51.404;6.304;2023-08-06T17:07:55;6.20;;;3.00;;
15812;SDS011;8007;51.404;6.304;2023-08-06T17:10:03;4.23;;;2.90;;
15812;SDS011;8007;51.404;6.304;2023-08-06T17:12:06;4.90;;;2.77;;
15812;SDS011;8007;51.404;6.304;2023-08-06T17:14:13;2.67;;;2.20;;
15812;SDS011;8007;51.404;6.304;2023-08-06T17:16:17;5.47;;;2.60;;
15812;SDS011;8007;51.404;6.304;2023-08-06T17:18:20;3.90;;;2.23;;
15812;SDS011;8007;51.404;6.304;2023-08-06T17:20:23;5.37;;;2.27;;
15812;SDS011;8007;51.404;6.304;2023-08-06T17:22:28;7.17;;;2.40;;
15812;SDS011;8007;51.404;6.304;2023-08-06T17:24:32;5.43;;;1.93;;
15812;SDS011;8007;51.404;6.304;2023-08-06T17:26:38;3.80;;;1.70;;
15812;SDS011;8007;51.404;6.304;2023-08-06T17:28:40;6.07;;;1.77;;
15812;SDS011;8007;51.404;6.304;2023-08-06T17:30:55;6.30;;;1.80;;
15812;SDS011;8007;51.404;6.304;2023-08-06T17:33:15;7.57;;;1.60;;
15812;SDS011;8007;51.404;6.304;2023-08-06T17:35:18;6.17;;;1.90;;
15812;SDS011;8007;51.404;6.304;2023-08-06T17:37:44;6.87;;;1.70;;
15812;SDS011;8007;51.404;6.304;2023-08-06T17:39:58;6.10;;;1.70;;
15812;SDS011;8007;51.404;6.304;2023-08-06T17:42:02;6.33;;;1.43;;
15812;SDS011;8007;51.404;6.304;2023-08-06T17:44:10;5.83;;;1.87;;
15812;SDS011;8007;51.404;6.304;2023-08-06T17:46:13;7.70;;;1.97;;
15812;SDS011;8007;51.404;6.304;2023-08-06T17:48:19;2.97;;;1.17;;
15812;SDS011;8007;51.404;6.304;2023-08-06T17:50:23;6.87;;;1.50;;
15812;SDS011;8007;51.404;6.304;2023-08-06T17:52:26;9.17;;;1.77;;
15812;SDS011;8007;51.404;6.304;2023-08-06T17:54:28;7.63;;;2.30;;
15812;SDS011;8007;51.404;6.304;2023-08-06T17:56:34;9.00;;;1.63;;
15812;SDS011;8007;51.404;6.304;2023-08-06T17:58:38;6.27;;;1.47;;
15812;SDS011;8007;51.404;6.304;2023-08-06T18:00:42;5.63;;;1.70;;
15812;SDS011;8007;51.404;6.304;2023-08-06T18:02:48;6.03;;;1.80;;
15812;SDS011;8007;51.404;6.304;2023-08-06T18:04:51;5.97;;;1.67;;
15812;SDS011;8007;51.404;6.304;2023-08-06T18:06:57;4.47;;;1.50;;
15812;SDS011;8007;51.404;6.304;2023-08-06T18:09:02;3.40;;;1.40;;
15812;SDS011;8007;51.404;6.304;2023-08-06T18:11:09;5.03;;;1.23;;
15812;SDS011;8007;51.404;6.304;2023-08-06T18:13:12;6.40;;;2.00;;
15812;SDS011;8007;51.404;6.304;2023-08-06T18:15:16;6.40;;;1.40;;
15812;SDS011;8007;51.404;6.304;2023-08-06T18:17:31;6.70;;;1.27;;
15812;SDS011;8007;51.404;6.304;2023-08-06T18:19:33;12.73;;;1.57;;
15812;SDS011;8007;51.404;6.304;2023-08-06T18:21:54;6.43;;;1.40;;
15812;SDS011;8007;51.404;6.304;2023-08-06T18:24:03;6.00;;;1.50;;
15812;SDS011;8007;51.404;6.304;2023-08-06T18:26:16;5.07;;;1.40;;
15812;SDS011;8007;51.404;6.304;2023-08-06T18:28:18;8.53;;;1.57;;
15812;SDS011;8007;51.404;6.304;2023-08-06T18:30:23;5.00;;;1.53;;
15812;SDS011;8007;51.404;6.304;2023-08-06T18:32:28;4.50;;;1.50;;
15812;SDS011;8007;51.404;6.304;2023-08-06T18:34:37;6.63;;;1.40;;
15812;SDS011;8007;51.404;6.304;2023-08-06T18:36:40;7.93;;;1.80;;
15812;SDS011;8007;51.404;6.304;2023-08-06T18:38:50;6.27;;;1.80;;
15812;SDS011;8007;51.404;6.304;2023-08-06T18:40:55;4.63;;;1.97;;
15812;SDS011;8007;51.404;6.304;2023-08-06T18:42:58;4.90;;;1.73;;
15812;SDS011;8007;51.404;6.304;2023-08-06T18:45:01;2.90;;;1.40;;
15812;SDS011;8007;51.404;6.304;2023-08-06T18:47:05;5.83;;;1.73;;
15812;SDS011;8007;51.404;6.304;2023-08-06T18:49:08;6.30;;;1.73;;
15812;SDS011;8007;51.404;6.304;2023-08-06T18:51:16;7.07;;;2.10;;
15812;SDS011;8007;51.404;6.304;2023-08-06T18:53:20;7.67;;;1.73;;
15812;SDS011;8007;51.404;6.304;2023-08-06T18:55:21;10.67;;;1.77;;
15812;SDS011;8007;51.404;6.304;2023-08-06T18:57:29;6.80;;;1.90;;
15812;SDS011;8007;51.404;6.304;2023-08-06T18:59:32;7.30;;;2.37;;
15812;SDS011;8007;51.404;6.304;2023-08-06T19:01:35;8.53;;;1.80;;
15812;SDS011;8007;51.404;6.304;2023-08-06T19:03:41;8.50;;;1.63;;
15812;SDS011;8007;51.404;6.304;2023-08-06T19:05:44;9.50;;;1.97;;
15812;SDS011;8007;51.404;6.304;2023-08-06T19:07:48;7.63;;;1.70;;
15812;SDS011;8007;51.404;6.304;2023-08-06T19:09:51;7.23;;;1.70;;
15812;SDS011;8007;51.404;6.304;2023-08-06T19:11:55;10.37;;;2.00;;
15812;SDS011;8007;51.404;6.304;2023-08-06T19:13:58;8.53;;;1.83;;
15812;SDS011;8007;51.404;6.304;2023-08-06T19:15:59;10.23;;;1.87;;
15812;SDS011;8007;51.404;6.304;2023-08-06T19:18:06;5.50;;;1.60;;
15812;SDS011;8007;51.404;6.304;2023-08-06T19:20:13;5.97;;;1.90;;
15812;SDS011;8007;51.404;6.304;2023-08-06T19:22:16;7.03;;;2.00;;
15812;SDS011;8007;51.404;6.304;2023-08-06T19:24:20;7.57;;;1.80;;
15812;SDS011;8007;51.404;6.304;2023-08-06T19:26:23;6.47;;;2.20;;
15812;SDS011;8007;51.404;6.304;2023-08-06T19:28:26;6.37;;;1.73;;
15812;SDS011;8007;51.404;6.304;2023-08-06T19:30:29;6.20;;;1.70;;
15812;SDS011;8007;51.404;6.304;2023-08-06T19:32:35;8.13;;;1.80;;
15812;SDS011;8007;51.404;6.304;2023-08-06T19:34:51;7.47;;;1.70;;
15812;SDS011;8007;51.404;6.304;2023-08-06T19:37:11;10.93;;;1.90;;
15812;SDS011;8007;51.404;6.304;2023-08-06T19:39:18;5.80;;;1.77;;
15812;SDS011;8007;51.404;6.304;2023-08-06T19:41:24;13.97;;;2.07;;
15812;SDS011;8007;51.404;6.304;2023-08-06T19:43:43;6.97;;;1.70;;
15812;SDS011;8007;51.404;6.304;2023-08-06T19:46:28;4.97;;;1.40;;
15812;SDS011;8007;51.404;6.304;2023-08-06T19:48:31;7.90;;;1.90;;
15812;SDS011;8007;51.404;6.304;2023-08-06T19:50:40;8.30;;;1.70;;
15812;SDS011;8007;51.404;6.304;2023-08-06T19:52:43;15.10;;;1.90;;
15812;SDS011;8007;51.404;6.304;2023-08-06T19:54:54;8.33;;;1.80;;
15812;SDS011;8007;51.404;6.304;2023-08-06T19:57:35;6.20;;;1.80;;
15812;SDS011;8007;51.404;6.304;2023-08-06T19:59:43;5.17;;;1.97;;
15812;SDS011;8007;51.404;6.304;2023-08-06T20:01:52;6.00;;;1.83;;
15812;SDS011;8007;51.404;6.304;2023-08-06T20:03:58;5.33;;;1.47;;
15812;SDS011;8007;51.404;6.304;2023-08-06T20:06:08;4.97;;;1.60;;
15812;SDS011;8007;51.404;6.304;2023-08-06T20:08:21;11.27;;;2.30;;
15812;SDS011;8007;51.404;6.304;2023-08-06T20:10:40;6.87;;;1.57;;
15812;SDS011;8007;51.404;6.304;2023-08-06T20:13:03;7.67;;;1.60;;
15812;SDS011;8007;51.404;6.304;2023-08-06T20:15:06;10.90;;;2.10;;
15812;SDS011;8007;51.404;6.304;2023-08-06T20:17:11;8.67;;;1.70;;
15812;SDS011;8007;51.404;6.304;2023-08-06T20:19:17;7.57;;;1.50;;
15812;SDS011;8007;51.404;6.304;2023-08-06T20:21:26;6.47;;;1.50;;